Time,TemperatureF,DewpointF,PressureIn,WindDirection,WindDirectionDegrees,WindSpeedMPH,WindSpeedGustMPH,Humidity,HourlyPrecipIn,Conditions,Clouds,dailyrainin,SoftwareType,DateUTC
2013-06-28 00:00:00,76.5,74.0,29.73,N/A,-737280,0.0,-999.0,92,0.00,,,2.44,Wunderground v.1.15,2013-06-28 04:00:00,
2013-06-28 00:05:00,76.5,74.0,29.73,N/A,-737280,0.0,-999.0,92,0.00,,,2.44,Wunderground v.1.15,2013-06-28 04:05:00,
2013-06-28 00:10:00,76.5,74.0,29.73,N/A,-737280,0.0,-999.0,92,0.00,,,2.44,Wunderground v.1.15,2013-06-28 04:10:00,
2013-06-28 00:15:00,76.5,74.0,29.73,N/A,-737280,0.0,-999.0,92,0.00,,,2.44,Wunderground v.1.15,2013-06-28 04:15:00,
2013-06-28 00:20:00,76.5,74.0,29.73,N/A,-737280,0.0,-999.0,92,0.00,,,2.44,Wunderground v.1.15,2013-06-28 04:20:00,
2013-06-28 00:25:00,76.5,74.0,29.73,N/A,-737280,0.0,-999.0,92,0.00,,,2.44,Wunderground v.1.15,2013-06-28 04:25:00,
2013-06-28 00:30:00,76.5,74.0,29.73,N/A,-737280,0.0,-999.0,92,0.00,,,2.44,Wunderground v.1.15,2013-06-28 04:30:00,
2013-06-28 00:35:00,76.5,74.0,29.73,N/A,-737280,0.0,-999.0,92,0.00,,,2.44,Wunderground v.1.15,2013-06-28 04:35:00,
2013-06-28 00:40:00,76.5,74.0,29.73,N/A,-737280,0.0,-999.0,92,0.00,,,2.44,Wunderground v.1.15,2013-06-28 04:40:00,
2013-06-28 00:45:00,76.5,73.7,29.73,N/A,-737280,0.0,-999.0,91,0.00,,,2.44,Wunderground v.1.15,2013-06-28 04:45:00,
2013-06-28 00:50:00,76.5,73.7,29.73,N/A,-737280,0.0,-999.0,91,0.00,,,2.44,Wunderground v.1.15,2013-06-28 04:50:00,
2013-06-28 00:55:00,76.5,73.7,29.73,N/A,-737280,0.0,-999.0,91,0.00,,,2.44,Wunderground v.1.15,2013-06-28 04:55:00,
2013-06-28 01:00:00,76.5,73.7,29.73,N/A,-737280,0.0,-999.0,91,0.00,,,2.44,Wunderground v.1.15,2013-06-28 05:00:00,
2013-06-28 01:05:00,76.5,73.7,29.73,N/A,-737280,0.0,-999.0,91,0.00,,,2.44,Wunderground v.1.15,2013-06-28 05:05:00,
2013-06-28 01:10:00,76.5,73.7,29.73,N/A,-737280,0.0,-999.0,91,0.00,,,2.44,Wunderground v.1.15,2013-06-28 05:10:00,
2013-06-28 01:15:00,76.0,73.2,29.72,N/A,-737280,0.0,-999.0,91,0.00,,,2.44,Wunderground v.1.15,2013-06-28 05:15:00,
2013-06-28 01:20:00,76.0,73.2,29.72,N/A,-737280,0.0,-999.0,91,0.00,,,2.44,Wunderground v.1.15,2013-06-28 05:20:00,
2013-06-28 01:25:00,76.0,73.2,29.72,N/A,-737280,0.0,-999.0,91,0.00,,,2.44,Wunderground v.1.15,2013-06-28 05:25:00,
2013-06-28 01:30:00,76.0,73.2,29.72,N/A,-737280,0.0,-999.0,91,0.00,,,2.44,Wunderground v.1.15,2013-06-28 05:30:00,
2013-06-28 01:35:00,76.0,73.2,29.72,N/A,-737280,0.0,-999.0,91,0.00,,,2.44,Wunderground v.1.15,2013-06-28 05:35:00,
2013-06-28 01:40:00,76.0,73.2,29.72,N/A,-737280,0.0,-999.0,91,0.00,,,2.44,Wunderground v.1.15,2013-06-28 05:40:00,
2013-06-28 01:45:00,75.3,72.8,29.72,N/A,-737280,0.0,-999.0,92,0.00,,,2.44,Wunderground v.1.15,2013-06-28 05:45:00,
2013-06-28 01:50:00,75.3,72.8,29.72,N/A,-737280,0.0,-999.0,92,0.00,,,2.44,Wunderground v.1.15,2013-06-28 05:50:00,
2013-06-28 01:55:00,75.3,72.8,29.72,N/A,-737280,0.0,-999.0,92,0.00,,,2.44,Wunderground v.1.15,2013-06-28 05:55:00,
2013-06-28 02:00:00,75.3,72.8,29.72,N/A,-737280,0.0,-999.0,92,0.00,,,2.44,Wunderground v.1.15,2013-06-28 06:00:00,
2013-06-28 02:05:00,75.3,72.8,29.72,N/A,-737280,0.0,-999.0,92,0.00,,,2.44,Wunderground v.1.15,2013-06-28 06:05:00,
2013-06-28 02:10:00,75.3,72.8,29.72,N/A,-737280,0.0,-999.0,92,0.00,,,2.44,Wunderground v.1.15,2013-06-28 06:10:00,
2013-06-28 02:15:00,75.4,72.9,29.72,N/A,-737280,0.0,-999.0,92,0.00,,,2.44,Wunderground v.1.15,2013-06-28 06:15:00,
2013-06-28 02:20:00,75.4,72.9,29.72,N/A,-737280,0.0,-999.0,92,0.00,,,2.44,Wunderground v.1.15,2013-06-28 06:20:00,
2013-06-28 02:25:00,75.4,72.9,29.72,N/A,-737280,0.0,-999.0,92,0.00,,,2.44,Wunderground v.1.15,2013-06-28 06:25:00,
2013-06-28 02:30:00,75.4,72.9,29.72,N/A,-737280,0.0,-999.0,92,0.00,,,2.44,Wunderground v.1.15,2013-06-28 06:30:00,
2013-06-28 02:35:00,75.4,72.9,29.72,N/A,-737280,0.0,-999.0,92,0.00,,,2.44,Wunderground v.1.15,2013-06-28 06:35:00,
2013-06-28 02:40:00,75.4,72.9,29.72,N/A,-737280,0.0,-999.0,92,0.00,,,2.44,Wunderground v.1.15,2013-06-28 06:40:00,
2013-06-28 02:45:00,75.1,72.6,29.72,N/A,-737280,0.0,-999.0,92,0.00,,,2.44,Wunderground v.1.15,2013-06-28 06:45:00,
2013-06-28 02:50:00,75.1,72.6,29.72,N/A,-737280,0.0,-999.0,92,0.00,,,2.44,Wunderground v.1.15,2013-06-28 06:50:00,
2013-06-28 02:55:00,75.1,72.6,29.72,N/A,-737280,0.0,-999.0,92,0.00,,,2.44,Wunderground v.1.15,2013-06-28 06:55:00,
2013-06-28 03:00:00,75.1,72.6,29.72,N/A,-737280,0.0,-999.0,92,0.00,,,2.44,Wunderground v.1.15,2013-06-28 07:00:00,
2013-06-28 03:05:00,75.1,72.6,29.72,N/A,-737280,0.0,-999.0,92,0.00,,,2.44,Wunderground v.1.15,2013-06-28 07:05:00,
2013-06-28 03:10:00,75.1,72.6,29.72,N/A,-737280,0.0,-999.0,92,0.00,,,2.44,Wunderground v.1.15,2013-06-28 07:10:00,
2013-06-28 03:15:00,74.8,72.3,29.71,N/A,-737280,0.0,-999.0,92,0.00,,,2.44,Wunderground v.1.15,2013-06-28 07:15:00,
2013-06-28 03:20:00,74.8,72.3,29.71,N/A,-737280,0.0,-999.0,92,0.00,,,2.44,Wunderground v.1.15,2013-06-28 07:20:00,
2013-06-28 03:25:00,74.8,72.3,29.71,N/A,-737280,0.0,-999.0,92,0.00,,,2.44,Wunderground v.1.15,2013-06-28 07:25:00,
2013-06-28 03:30:00,74.8,72.3,29.71,N/A,-737280,0.0,-999.0,92,0.00,,,2.44,Wunderground v.1.15,2013-06-28 07:30:00,
2013-06-28 03:35:00,74.8,72.3,29.71,N/A,-737280,0.0,-999.0,92,0.00,,,2.44,Wunderground v.1.15,2013-06-28 07:35:00,
2013-06-28 03:40:00,74.8,72.3,29.71,N/A,-737280,0.0,-999.0,92,0.00,,,2.44,Wunderground v.1.15,2013-06-28 07:40:00,
2013-06-28 03:45:00,73.9,71.4,29.70,N/A,-737280,0.0,-999.0,92,0.00,,,2.44,Wunderground v.1.15,2013-06-28 07:45:00,
2013-06-28 03:50:00,73.9,71.4,29.70,N/A,-737280,0.0,-999.0,92,0.00,,,2.44,Wunderground v.1.15,2013-06-28 07:50:00,
2013-06-28 03:55:00,73.9,71.4,29.70,N/A,-737280,0.0,-999.0,92,0.00,,,2.44,Wunderground v.1.15,2013-06-28 07:55:00,
2013-06-28 04:00:00,73.9,71.4,29.70,N/A,-737280,0.0,-999.0,92,0.00,,,2.44,Wunderground v.1.15,2013-06-28 08:00:00,
2013-06-28 04:05:00,73.9,71.4,29.70,N/A,-737280,0.0,-999.0,92,0.00,,,2.44,Wunderground v.1.15,2013-06-28 08:05:00,
2013-06-28 04:10:00,73.9,71.4,29.70,N/A,-737280,0.0,-999.0,92,0.00,,,2.44,Wunderground v.1.15,2013-06-28 08:10:00,
2013-06-28 04:15:00,73.1,71.0,29.70,N/A,-737280,0.0,-999.0,93,0.00,,,2.44,Wunderground v.1.15,2013-06-28 08:15:00,
2013-06-28 04:20:00,73.1,71.0,29.70,N/A,-737280,0.0,-999.0,93,0.00,,,2.44,Wunderground v.1.15,2013-06-28 08:20:00,
2013-06-28 04:25:00,73.1,71.0,29.70,N/A,-737280,0.0,-999.0,93,0.00,,,2.44,Wunderground v.1.15,2013-06-28 08:25:00,
2013-06-28 04:30:00,73.1,71.0,29.70,N/A,-737280,0.0,-999.0,93,0.00,,,2.44,Wunderground v.1.15,2013-06-28 08:30:00,
2013-06-28 04:35:00,73.1,71.0,29.70,N/A,-737280,0.0,-999.0,93,0.00,,,2.44,Wunderground v.1.15,2013-06-28 08:35:00,
2013-06-28 04:40:00,73.1,71.0,29.70,N/A,-737280,0.0,-999.0,93,0.00,,,2.44,Wunderground v.1.15,2013-06-28 08:40:00,
2013-06-28 04:45:00,72.9,71.1,29.70,N/A,-737280,0.0,-999.0,94,0.00,,,2.44,Wunderground v.1.15,2013-06-28 08:45:00,
2013-06-28 04:50:00,72.9,71.1,29.70,N/A,-737280,0.0,-999.0,94,0.00,,,2.44,Wunderground v.1.15,2013-06-28 08:50:00,
2013-06-28 04:55:00,72.9,71.1,29.70,N/A,-737280,0.0,-999.0,94,0.00,,,2.44,Wunderground v.1.15,2013-06-28 08:55:00,
2013-06-28 05:00:00,72.9,71.1,29.70,N/A,-737280,0.0,-999.0,94,0.00,,,2.44,Wunderground v.1.15,2013-06-28 09:00:00,
2013-06-28 05:05:00,72.9,71.1,29.70,N/A,-737280,0.0,-999.0,94,0.00,,,2.44,Wunderground v.1.15,2013-06-28 09:05:00,
2013-06-28 05:10:00,72.9,71.1,29.70,N/A,-737280,0.0,-999.0,94,0.00,,,2.44,Wunderground v.1.15,2013-06-28 09:10:00,
2013-06-28 05:15:00,72.3,70.5,29.69,N/A,-737280,0.0,-999.0,94,0.00,,,2.44,Wunderground v.1.15,2013-06-28 09:15:00,
2013-06-28 05:20:00,72.3,70.5,29.69,N/A,-737280,0.0,-999.0,94,0.00,,,2.44,Wunderground v.1.15,2013-06-28 09:20:00,
2013-06-28 05:25:00,72.3,70.5,29.69,N/A,-737280,0.0,-999.0,94,0.00,,,2.44,Wunderground v.1.15,2013-06-28 09:25:00,
2013-06-28 05:30:00,72.3,70.5,29.69,N/A,-737280,0.0,-999.0,94,0.00,,,2.44,Wunderground v.1.15,2013-06-28 09:30:00,
2013-06-28 05:35:00,72.3,70.5,29.69,N/A,-737280,0.0,-999.0,94,0.00,,,2.44,Wunderground v.1.15,2013-06-28 09:35:00,
2013-06-28 05:40:00,72.3,70.5,29.69,N/A,-737280,0.0,-999.0,94,0.00,,,2.44,Wunderground v.1.15,2013-06-28 09:40:00,
2013-06-28 05:45:00,72.0,70.2,29.69,N/A,-737280,0.0,-999.0,94,0.00,,,2.44,Wunderground v.1.15,2013-06-28 09:45:00,
2013-06-28 05:50:00,72.0,70.2,29.69,N/A,-737280,0.0,-999.0,94,0.00,,,2.44,Wunderground v.1.15,2013-06-28 09:50:00,
2013-06-28 05:55:00,72.0,70.2,29.69,N/A,-737280,0.0,-999.0,94,0.00,,,2.44,Wunderground v.1.15,2013-06-28 09:55:00,
2013-06-28 06:00:00,72.0,70.2,29.69,N/A,-737280,0.0,-999.0,94,0.00,,,2.44,Wunderground v.1.15,2013-06-28 10:00:00,
2013-06-28 06:05:00,72.0,70.2,29.69,N/A,-737280,0.0,-999.0,94,0.00,,,2.44,Wunderground v.1.15,2013-06-28 10:05:00,
2013-06-28 06:10:00,72.0,70.2,29.69,N/A,-737280,0.0,-999.0,94,0.00,,,2.44,Wunderground v.1.15,2013-06-28 10:10:00,
2013-06-28 06:15:00,71.7,69.9,29.70,N/A,-737280,0.0,-999.0,94,0.00,,,2.44,Wunderground v.1.15,2013-06-28 10:15:00,
2013-06-28 06:20:00,71.7,69.9,29.70,N/A,-737280,0.0,-999.0,94,0.00,,,2.44,Wunderground v.1.15,2013-06-28 10:20:00,
2013-06-28 06:25:00,71.7,69.9,29.70,N/A,-737280,0.0,-999.0,94,0.00,,,2.44,Wunderground v.1.15,2013-06-28 10:25:00,
2013-06-28 06:30:00,71.7,69.9,29.70,N/A,-737280,0.0,-999.0,94,0.00,,,2.44,Wunderground v.1.15,2013-06-28 10:30:00,
2013-06-28 06:35:00,71.7,69.9,29.70,N/A,-737280,0.0,-999.0,94,0.00,,,2.44,Wunderground v.1.15,2013-06-28 10:35:00,
2013-06-28 06:40:00,71.7,69.9,29.70,N/A,-737280,0.0,-999.0,94,0.00,,,2.44,Wunderground v.1.15,2013-06-28 10:40:00,
2013-06-28 06:45:00,71.8,70.3,29.70,N/A,-737280,0.0,-999.0,95,0.00,,,2.44,Wunderground v.1.15,2013-06-28 10:45:00,
2013-06-28 06:50:00,71.8,70.3,29.70,N/A,-737280,0.0,-999.0,95,0.00,,,2.44,Wunderground v.1.15,2013-06-28 10:50:00,
2013-06-28 06:55:00,71.8,70.3,29.70,N/A,-737280,0.0,-999.0,95,0.00,,,2.44,Wunderground v.1.15,2013-06-28 10:55:00,
2013-06-28 07:00:00,71.8,70.3,29.70,N/A,-737280,0.0,-999.0,95,0.00,,,2.44,Wunderground v.1.15,2013-06-28 11:00:00,
2013-06-28 07:05:00,71.8,70.3,29.70,N/A,-737280,0.0,-999.0,95,0.00,,,2.44,Wunderground v.1.15,2013-06-28 11:05:00,
2013-06-28 07:10:00,71.8,70.3,29.70,N/A,-737280,0.0,-999.0,95,0.00,,,2.44,Wunderground v.1.15,2013-06-28 11:10:00,
2013-06-28 07:15:00,73.5,71.4,29.70,N/A,-737280,0.0,-999.0,93,0.00,,,2.44,Wunderground v.1.15,2013-06-28 11:15:00,
2013-06-28 07:20:00,73.5,71.4,29.70,N/A,-737280,0.0,-999.0,93,0.00,,,2.44,Wunderground v.1.15,2013-06-28 11:20:00,
2013-06-28 07:25:00,73.5,71.4,29.70,N/A,-737280,0.0,-999.0,93,0.00,,,2.44,Wunderground v.1.15,2013-06-28 11:25:00,
2013-06-28 07:30:00,73.5,71.4,29.70,N/A,-737280,0.0,-999.0,93,0.00,,,2.44,Wunderground v.1.15,2013-06-28 11:30:00,
2013-06-28 07:35:00,73.5,71.4,29.70,N/A,-737280,0.0,-999.0,93,0.00,,,2.44,Wunderground v.1.15,2013-06-28 11:35:00,
2013-06-28 07:40:00,73.5,71.4,29.70,N/A,-737280,0.0,-999.0,93,0.00,,,2.44,Wunderground v.1.15,2013-06-28 11:40:00,
2013-06-28 07:45:00,76.3,71.5,29.70,N/A,-737280,0.0,-999.0,85,0.00,,,2.44,Wunderground v.1.15,2013-06-28 11:45:00,
2013-06-28 07:50:00,76.3,71.5,29.70,N/A,-737280,0.0,-999.0,85,0.00,,,2.44,Wunderground v.1.15,2013-06-28 11:50:00,
2013-06-28 07:55:00,76.3,71.5,29.70,N/A,-737280,0.0,-999.0,85,0.00,,,2.44,Wunderground v.1.15,2013-06-28 11:55:00,
2013-06-28 08:00:00,76.3,71.5,29.70,N/A,-737280,0.0,-999.0,85,0.00,,,2.44,Wunderground v.1.15,2013-06-28 12:00:00,
2013-06-28 08:05:00,76.3,71.5,29.70,N/A,-737280,0.0,-999.0,85,0.00,,,2.44,Wunderground v.1.15,2013-06-28 12:05:00,
2013-06-28 08:10:00,76.3,71.5,29.70,N/A,-737280,0.0,-999.0,85,0.00,,,2.44,Wunderground v.1.15,2013-06-28 12:10:00,
2013-06-28 08:15:00,78.1,71.8,29.70,N/A,-737280,0.0,-999.0,81,0.00,,,2.44,Wunderground v.1.15,2013-06-28 12:15:00,
2013-06-28 08:20:00,78.1,71.8,29.70,N/A,-737280,0.0,-999.0,81,0.00,,,2.44,Wunderground v.1.15,2013-06-28 12:20:00,
2013-06-28 08:25:00,78.1,71.8,29.70,N/A,-737280,0.0,-999.0,81,0.00,,,2.44,Wunderground v.1.15,2013-06-28 12:25:00,
2013-06-28 08:30:00,78.1,71.8,29.70,N/A,-737280,0.0,-999.0,81,0.00,,,2.44,Wunderground v.1.15,2013-06-28 12:30:00,
2013-06-28 08:35:00,78.1,71.8,29.70,N/A,-737280,0.0,-999.0,81,0.00,,,2.44,Wunderground v.1.15,2013-06-28 12:35:00,
2013-06-28 08:40:00,78.1,71.8,29.70,N/A,-737280,0.0,-999.0,81,0.00,,,2.44,Wunderground v.1.15,2013-06-28 12:40:00,
2013-06-28 08:45:00,79.4,72.7,29.70,N/A,-737280,0.0,-999.0,80,0.00,,,2.44,Wunderground v.1.15,2013-06-28 12:45:00,
2013-06-28 08:50:00,79.4,72.7,29.70,N/A,-737280,0.0,-999.0,80,0.00,,,2.44,Wunderground v.1.15,2013-06-28 12:50:00,
2013-06-28 08:55:00,79.4,72.7,29.70,N/A,-737280,0.0,-999.0,80,0.00,,,2.44,Wunderground v.1.15,2013-06-28 12:55:00,
2013-06-28 09:00:00,79.4,72.7,29.70,N/A,-737280,0.0,-999.0,80,0.00,,,2.44,Wunderground v.1.15,2013-06-28 13:00:00,
2013-06-28 09:05:00,79.4,72.7,29.70,N/A,-737280,0.0,-999.0,80,0.00,,,2.44,Wunderground v.1.15,2013-06-28 13:05:00,
2013-06-28 09:10:00,79.4,72.7,29.70,N/A,-737280,0.0,-999.0,80,0.00,,,2.44,Wunderground v.1.15,2013-06-28 13:10:00,
2013-06-28 09:15:00,80.6,73.1,29.69,N/A,-737280,0.0,-999.0,78,0.00,,,2.44,Wunderground v.1.15,2013-06-28 13:15:00,
2013-06-28 09:20:00,80.6,73.1,29.69,N/A,-737280,0.0,-999.0,78,0.00,,,2.44,Wunderground v.1.15,2013-06-28 13:20:00,
2013-06-28 09:25:00,80.6,73.1,29.69,N/A,-737280,0.0,-999.0,78,0.00,,,2.44,Wunderground v.1.15,2013-06-28 13:25:00,
2013-06-28 09:30:00,80.6,73.1,29.69,N/A,-737280,0.0,-999.0,78,0.00,,,2.44,Wunderground v.1.15,2013-06-28 13:30:00,
2013-06-28 09:35:00,80.6,73.1,29.69,N/A,-737280,0.0,-999.0,78,0.00,,,2.44,Wunderground v.1.15,2013-06-28 13:35:00,
2013-06-28 09:40:00,80.6,73.1,29.69,N/A,-737280,0.0,-999.0,78,0.00,,,2.44,Wunderground v.1.15,2013-06-28 13:40:00,
2013-06-28 09:45:00,80.7,74.0,29.70,N/A,-737280,0.0,-999.0,80,0.00,,,2.44,Wunderground v.1.15,2013-06-28 13:45:00,
2013-06-28 09:50:00,80.7,74.0,29.70,N/A,-737280,0.0,-999.0,80,0.00,,,2.44,Wunderground v.1.15,2013-06-28 13:50:00,
2013-06-28 09:55:00,80.7,74.0,29.70,N/A,-737280,0.0,-999.0,80,0.00,,,2.44,Wunderground v.1.15,2013-06-28 13:55:00,
2013-06-28 10:00:00,80.7,74.0,29.70,N/A,-737280,0.0,-999.0,80,0.00,,,2.44,Wunderground v.1.15,2013-06-28 14:00:00,
2013-06-28 10:05:00,80.7,74.0,29.70,N/A,-737280,0.0,-999.0,80,0.00,,,2.44,Wunderground v.1.15,2013-06-28 14:05:00,
2013-06-28 10:10:00,80.7,74.0,29.70,N/A,-737280,0.0,-999.0,80,0.00,,,2.44,Wunderground v.1.15,2013-06-28 14:10:00,
2013-06-28 10:15:00,81.2,74.4,29.68,WSW,248,2.0,-999.0,80,0.00,,,2.44,Wunderground v.1.15,2013-06-28 14:15:00,
2013-06-28 10:20:00,81.2,74.4,29.68,WSW,248,2.0,-999.0,80,0.00,,,2.44,Wunderground v.1.15,2013-06-28 14:20:00,
2013-06-28 10:25:00,81.2,74.4,29.68,WSW,248,2.0,-999.0,80,0.00,,,2.44,Wunderground v.1.15,2013-06-28 14:25:00,
2013-06-28 10:30:00,81.2,74.4,29.68,WSW,248,2.0,-999.0,80,0.00,,,2.44,Wunderground v.1.15,2013-06-28 14:30:00,
2013-06-28 10:35:00,81.2,74.4,29.68,WSW,248,2.0,-999.0,80,0.00,,,2.44,Wunderground v.1.15,2013-06-28 14:35:00,
2013-06-28 10:40:00,81.2,74.4,29.68,WSW,248,2.0,-999.0,80,0.00,,,2.44,Wunderground v.1.15,2013-06-28 14:40:00,
2013-06-28 10:45:00,82.4,75.2,29.68,West,270,3.0,-999.0,79,0.00,,,2.44,Wunderground v.1.15,2013-06-28 14:45:00,
2013-06-28 10:50:00,82.4,75.2,29.68,West,270,3.0,-999.0,79,0.00,,,2.44,Wunderground v.1.15,2013-06-28 14:50:00,
2013-06-28 10:55:00,82.4,75.2,29.68,West,270,3.0,-999.0,79,0.00,,,2.44,Wunderground v.1.15,2013-06-28 14:55:00,
2013-06-28 11:00:00,82.4,75.2,29.68,West,270,3.0,-999.0,79,0.00,,,2.44,Wunderground v.1.15,2013-06-28 15:00:00,
2013-06-28 11:05:00,82.4,75.2,29.68,West,270,3.0,-999.0,79,0.00,,,2.44,Wunderground v.1.15,2013-06-28 15:05:00,
2013-06-28 11:10:00,82.4,75.2,29.68,West,270,3.0,-999.0,79,0.00,,,2.44,Wunderground v.1.15,2013-06-28 15:10:00,
2013-06-28 11:15:00,84.1,75.7,29.68,West,270,3.0,-999.0,76,0.00,,,2.44,Wunderground v.1.15,2013-06-28 15:15:00,
2013-06-28 11:20:00,84.1,75.7,29.68,West,270,3.0,-999.0,76,0.00,,,2.44,Wunderground v.1.15,2013-06-28 15:20:00,
2013-06-28 11:25:00,84.1,75.7,29.68,West,270,3.0,-999.0,76,0.00,,,2.44,Wunderground v.1.15,2013-06-28 15:25:00,
2013-06-28 11:30:00,84.1,75.7,29.68,West,270,3.0,-999.0,76,0.00,,,2.44,Wunderground v.1.15,2013-06-28 15:30:00,
2013-06-28 11:35:00,84.1,75.7,29.68,West,270,3.0,-999.0,76,0.00,,,2.44,Wunderground v.1.15,2013-06-28 15:35:00,
2013-06-28 11:40:00,84.1,75.7,29.68,West,270,3.0,-999.0,76,0.00,,,2.44,Wunderground v.1.15,2013-06-28 15:40:00,
2013-06-28 11:45:00,85.2,73.0,29.68,West,270,3.0,-999.0,67,0.00,,,2.44,Wunderground v.1.15,2013-06-28 15:45:00,
2013-06-28 11:50:00,85.2,73.0,29.68,West,270,3.0,-999.0,67,0.00,,,2.44,Wunderground v.1.15,2013-06-28 15:50:00,
2013-06-28 11:55:00,85.2,73.0,29.68,West,270,3.0,-999.0,67,0.00,,,2.44,Wunderground v.1.15,2013-06-28 15:55:00,
2013-06-28 12:00:00,85.2,73.0,29.68,West,270,3.0,-999.0,67,0.00,,,2.44,Wunderground v.1.15,2013-06-28 16:00:00,
2013-06-28 12:05:00,85.2,73.0,29.68,West,270,3.0,-999.0,67,0.00,,,2.44,Wunderground v.1.15,2013-06-28 16:05:00,
2013-06-28 12:10:00,85.2,73.0,29.68,West,270,3.0,-999.0,67,0.00,,,2.44,Wunderground v.1.15,2013-06-28 16:10:00,
2013-06-28 12:15:00,84.7,73.8,29.68,WSW,248,5.0,-999.0,70,0.00,,,2.44,Wunderground v.1.15,2013-06-28 16:15:00,
2013-06-28 12:20:00,84.7,73.8,29.68,WSW,248,5.0,-999.0,70,0.00,,,2.44,Wunderground v.1.15,2013-06-28 16:20:00,
2013-06-28 12:25:00,84.7,73.8,29.68,WSW,248,5.0,-999.0,70,0.00,,,2.44,Wunderground v.1.15,2013-06-28 16:25:00,
2013-06-28 12:30:00,84.7,73.8,29.68,WSW,248,5.0,-999.0,70,0.00,,,2.44,Wunderground v.1.15,2013-06-28 16:30:00,
2013-06-28 12:35:00,84.7,73.8,29.68,WSW,248,5.0,-999.0,70,0.00,,,2.44,Wunderground v.1.15,2013-06-28 16:35:00,
2013-06-28 12:40:00,84.7,73.8,29.68,WSW,248,5.0,-999.0,70,0.00,,,2.44,Wunderground v.1.15,2013-06-28 16:40:00,
2013-06-28 12:45:00,86.7,73.5,29.67,West,270,4.0,-999.0,65,0.00,,,2.44,Wunderground v.1.15,2013-06-28 16:45:00,
2013-06-28 12:50:00,86.7,73.5,29.67,West,270,4.0,-999.0,65,0.00,,,2.44,Wunderground v.1.15,2013-06-28 16:50:00,
2013-06-28 12:55:00,86.7,73.5,29.67,West,270,4.0,-999.0,65,0.00,,,2.44,Wunderground v.1.15,2013-06-28 16:55:00,
2013-06-28 13:00:00,86.7,73.5,29.67,West,270,4.0,-999.0,65,0.00,,,2.44,Wunderground v.1.15,2013-06-28 17:00:00,
2013-06-28 13:05:00,86.7,73.5,29.67,West,270,4.0,-999.0,65,0.00,,,2.44,Wunderground v.1.15,2013-06-28 17:05:00,
2013-06-28 13:10:00,86.7,73.5,29.67,West,270,4.0,-999.0,65,0.00,,,2.44,Wunderground v.1.15,2013-06-28 17:10:00,
2013-06-28 13:15:00,87.7,74.5,29.67,WSW,248,4.0,-999.0,65,0.00,,,2.44,Wunderground v.1.15,2013-06-28 17:15:00,
2013-06-28 13:20:00,87.7,74.5,29.67,WSW,248,4.0,-999.0,65,0.00,,,2.44,Wunderground v.1.15,2013-06-28 17:20:00,
2013-06-28 13:25:00,87.7,74.5,29.67,WSW,248,4.0,-999.0,65,0.00,,,2.44,Wunderground v.1.15,2013-06-28 17:25:00,
2013-06-28 13:30:00,87.7,74.5,29.67,WSW,248,4.0,-999.0,65,0.00,,,2.44,Wunderground v.1.15,2013-06-28 17:30:00,
2013-06-28 13:35:00,87.7,74.5,29.67,WSW,248,4.0,-999.0,65,0.00,,,2.44,Wunderground v.1.15,2013-06-28 17:35:00,
2013-06-28 13:40:00,87.7,74.5,29.67,WSW,248,4.0,-999.0,65,0.00,,,2.44,Wunderground v.1.15,2013-06-28 17:40:00,
2013-06-28 13:45:00,87.5,74.3,29.66,West,270,4.0,-999.0,65,0.00,,,2.44,Wunderground v.1.15,2013-06-28 17:45:00,
2013-06-28 13:50:00,87.5,74.3,29.66,West,270,4.0,-999.0,65,0.00,,,2.44,Wunderground v.1.15,2013-06-28 17:50:00,
2013-06-28 13:55:00,87.5,74.3,29.66,West,270,4.0,-999.0,65,0.00,,,2.44,Wunderground v.1.15,2013-06-28 17:55:00,
2013-06-28 14:00:00,87.5,74.3,29.66,West,270,4.0,-999.0,65,0.00,,,2.44,Wunderground v.1.15,2013-06-28 18:00:00,
2013-06-28 14:05:00,87.5,74.3,29.66,West,270,4.0,-999.0,65,0.00,,,2.44,Wunderground v.1.15,2013-06-28 18:05:00,
2013-06-28 14:10:00,87.5,74.3,29.66,West,270,4.0,-999.0,65,0.00,,,2.44,Wunderground v.1.15,2013-06-28 18:10:00,
2013-06-28 14:15:00,88.7,75.4,29.65,WSW,248,5.0,-999.0,65,0.00,,,2.44,Wunderground v.1.15,2013-06-28 18:15:00,
2013-06-28 14:20:00,88.7,75.4,29.65,WSW,248,5.0,-999.0,65,0.00,,,2.44,Wunderground v.1.15,2013-06-28 18:20:00,
2013-06-28 14:25:00,88.7,75.4,29.65,WSW,248,5.0,-999.0,65,0.00,,,2.44,Wunderground v.1.15,2013-06-28 18:25:00,
2013-06-28 14:30:00,88.7,75.4,29.65,WSW,248,5.0,-999.0,65,0.00,,,2.44,Wunderground v.1.15,2013-06-28 18:30:00,
2013-06-28 14:35:00,88.7,75.4,29.65,WSW,248,5.0,-999.0,65,0.00,,,2.44,Wunderground v.1.15,2013-06-28 18:35:00,
2013-06-28 14:40:00,88.7,75.4,29.65,WSW,248,5.0,-999.0,65,0.00,,,2.44,Wunderground v.1.15,2013-06-28 18:40:00,
2013-06-28 14:45:00,90.4,75.1,29.63,WSW,248,3.0,-999.0,61,0.00,,,2.44,Wunderground v.1.15,2013-06-28 18:45:00,
2013-06-28 14:50:00,90.4,75.1,29.63,WSW,248,3.0,-999.0,61,0.00,,,2.44,Wunderground v.1.15,2013-06-28 18:50:00,
2013-06-28 14:55:00,90.4,75.1,29.63,WSW,248,3.0,-999.0,61,0.00,,,2.44,Wunderground v.1.15,2013-06-28 18:55:00,
2013-06-28 15:00:00,90.4,75.1,29.63,WSW,248,3.0,-999.0,61,0.00,,,2.44,Wunderground v.1.15,2013-06-28 19:00:00,
2013-06-28 15:05:00,90.4,75.1,29.63,WSW,248,3.0,-999.0,61,0.00,,,2.44,Wunderground v.1.15,2013-06-28 19:05:00,
2013-06-28 15:10:00,90.4,75.1,29.63,WSW,248,3.0,-999.0,61,0.00,,,2.44,Wunderground v.1.15,2013-06-28 19:10:00,
2013-06-28 15:15:00,89.9,75.6,29.61,WSW,248,5.0,-999.0,63,0.00,,,2.44,Wunderground v.1.15,2013-06-28 19:15:00,
2013-06-28 15:20:00,89.9,75.6,29.61,WSW,248,5.0,-999.0,63,0.00,,,2.44,Wunderground v.1.15,2013-06-28 19:20:00,
2013-06-28 15:25:00,89.9,75.6,29.61,WSW,248,5.0,-999.0,63,0.00,,,2.44,Wunderground v.1.15,2013-06-28 19:25:00,
2013-06-28 15:30:00,89.9,75.6,29.61,WSW,248,5.0,-999.0,63,0.00,,,2.44,Wunderground v.1.15,2013-06-28 19:30:00,
2013-06-28 15:35:00,89.9,75.6,29.61,WSW,248,5.0,-999.0,63,0.00,,,2.44,Wunderground v.1.15,2013-06-28 19:35:00,
2013-06-28 15:40:00,89.9,75.6,29.61,WSW,248,5.0,-999.0,63,0.00,,,2.44,Wunderground v.1.15,2013-06-28 19:40:00,
2013-06-28 15:45:00,91.4,76.5,29.59,West,270,2.0,-999.0,62,0.00,,,2.44,Wunderground v.1.15,2013-06-28 19:45:00,
2013-06-28 15:50:00,91.4,76.5,29.59,West,270,2.0,-999.0,62,0.00,,,2.44,Wunderground v.1.15,2013-06-28 19:50:00,
2013-06-28 15:55:00,91.4,76.5,29.59,West,270,2.0,-999.0,62,0.00,,,2.44,Wunderground v.1.15,2013-06-28 19:55:00,
2013-06-28 16:00:00,91.4,76.5,29.59,West,270,2.0,-999.0,62,0.00,,,2.44,Wunderground v.1.15,2013-06-28 20:00:00,
2013-06-28 16:05:00,91.4,76.5,29.59,West,270,2.0,-999.0,62,0.00,,,2.44,Wunderground v.1.15,2013-06-28 20:05:00,
2013-06-28 16:10:00,91.4,76.5,29.59,West,270,2.0,-999.0,62,0.00,,,2.44,Wunderground v.1.15,2013-06-28 20:10:00,
2013-06-28 16:15:00,90.3,71.4,29.59,West,270,3.0,-999.0,54,0.00,,,2.44,Wunderground v.1.15,2013-06-28 20:15:00,
2013-06-28 16:20:00,90.3,71.4,29.59,West,270,3.0,-999.0,54,0.00,,,2.44,Wunderground v.1.15,2013-06-28 20:20:00,
2013-06-28 16:25:00,90.3,71.4,29.59,West,270,3.0,-999.0,54,0.00,,,2.44,Wunderground v.1.15,2013-06-28 20:25:00,
2013-06-28 16:30:00,90.3,71.4,29.59,West,270,3.0,-999.0,54,0.00,,,2.44,Wunderground v.1.15,2013-06-28 20:30:00,
2013-06-28 16:35:00,90.3,71.4,29.59,West,270,3.0,-999.0,54,0.00,,,2.44,Wunderground v.1.15,2013-06-28 20:35:00,
2013-06-28 16:40:00,90.3,71.4,29.59,West,270,3.0,-999.0,54,0.00,,,2.44,Wunderground v.1.15,2013-06-28 20:40:00,
2013-06-28 16:45:00,88.9,74.7,29.59,West,270,0.0,-999.0,63,0.00,,,2.44,Wunderground v.1.15,2013-06-28 20:45:00,
2013-06-28 16:50:00,88.9,74.7,29.59,West,270,0.0,-999.0,63,0.00,,,2.44,Wunderground v.1.15,2013-06-28 20:50:00,
2013-06-28 16:55:00,88.9,74.7,29.59,West,270,0.0,-999.0,63,0.00,,,2.44,Wunderground v.1.15,2013-06-28 20:55:00,
2013-06-28 17:00:00,88.9,74.7,29.59,West,270,0.0,-999.0,63,0.00,,,2.44,Wunderground v.1.15,2013-06-28 21:00:00,
2013-06-28 17:05:00,88.9,74.7,29.59,West,270,0.0,-999.0,63,0.00,,,2.44,Wunderground v.1.15,2013-06-28 21:05:00,
2013-06-28 17:10:00,88.9,74.7,29.59,West,270,0.0,-999.0,63,0.00,,,2.44,Wunderground v.1.15,2013-06-28 21:10:00,
2013-06-28 17:15:00,88.6,71.4,29.59,SW,225,1.0,-999.0,57,0.00,,,2.44,Wunderground v.1.15,2013-06-28 21:15:00,
2013-06-28 17:20:00,88.6,71.4,29.59,SW,225,1.0,-999.0,57,0.00,,,2.44,Wunderground v.1.15,2013-06-28 21:20:00,
2013-06-28 17:25:00,88.6,71.4,29.59,SW,225,1.0,-999.0,57,0.00,,,2.44,Wunderground v.1.15,2013-06-28 21:25:00,
2013-06-28 17:30:00,88.6,71.4,29.59,SW,225,1.0,-999.0,57,0.00,,,2.44,Wunderground v.1.15,2013-06-28 21:30:00,
2013-06-28 17:35:00,88.6,71.4,29.59,SW,225,1.0,-999.0,57,0.00,,,2.44,Wunderground v.1.15,2013-06-28 21:35:00,
2013-06-28 17:40:00,88.6,71.4,29.59,SW,225,1.0,-999.0,57,0.00,,,2.44,Wunderground v.1.15,2013-06-28 21:40:00,
2013-06-28 17:45:00,90.6,72.2,29.58,WSW,248,0.0,-999.0,55,0.00,,,2.44,Wunderground v.1.15,2013-06-28 21:45:00,
2013-06-28 17:50:00,90.6,72.2,29.58,WSW,248,0.0,-999.0,55,0.00,,,2.44,Wunderground v.1.15,2013-06-28 21:50:00,
2013-06-28 17:55:00,90.6,72.2,29.58,WSW,248,0.0,-999.0,55,0.00,,,2.44,Wunderground v.1.15,2013-06-28 21:55:00,
2013-06-28 18:00:00,90.6,72.2,29.58,WSW,248,0.0,-999.0,55,0.00,,,2.44,Wunderground v.1.15,2013-06-28 22:00:00,
2013-06-28 18:05:00,90.6,72.2,29.58,WSW,248,0.0,-999.0,55,0.00,,,2.44,Wunderground v.1.15,2013-06-28 22:05:00,
2013-06-28 18:10:00,90.6,72.2,29.58,WSW,248,0.0,-999.0,55,0.00,,,2.44,Wunderground v.1.15,2013-06-28 22:10:00,
2013-06-28 18:15:00,88.8,72.1,29.57,SW,225,0.0,-999.0,58,0.00,,,2.44,Wunderground v.1.15,2013-06-28 22:15:00,
2013-06-28 18:20:00,88.8,72.1,29.57,SW,225,0.0,-999.0,58,0.00,,,2.44,Wunderground v.1.15,2013-06-28 22:20:00,
2013-06-28 18:25:00,88.8,72.1,29.57,SW,225,0.0,-999.0,58,0.00,,,2.44,Wunderground v.1.15,2013-06-28 22:25:00,
2013-06-28 18:30:00,88.8,72.1,29.57,SW,225,0.0,-999.0,58,0.00,,,2.44,Wunderground v.1.15,2013-06-28 22:30:00,
2013-06-28 18:35:00,88.8,72.1,29.57,SW,225,0.0,-999.0,58,0.00,,,2.44,Wunderground v.1.15,2013-06-28 22:35:00,
2013-06-28 18:40:00,88.8,72.1,29.57,SW,225,0.0,-999.0,58,0.00,,,2.44,Wunderground v.1.15,2013-06-28 22:40:00,
2013-06-28 18:45:00,87.5,73.8,29.58,SW,225,0.0,-999.0,64,0.00,,,2.44,Wunderground v.1.15,2013-06-28 22:45:00,
2013-06-28 18:50:00,87.5,73.8,29.58,SW,225,0.0,-999.0,64,0.00,,,2.44,Wunderground v.1.15,2013-06-28 22:50:00,
2013-06-28 18:55:00,87.5,73.8,29.58,SW,225,0.0,-999.0,64,0.00,,,2.44,Wunderground v.1.15,2013-06-28 22:55:00,
2013-06-28 19:00:00,87.5,73.8,29.58,SW,225,0.0,-999.0,64,0.00,,,2.44,Wunderground v.1.15,2013-06-28 23:00:00,
2013-06-28 19:05:00,87.5,73.8,29.58,SW,225,0.0,-999.0,64,0.00,,,2.44,Wunderground v.1.15,2013-06-28 23:05:00,
2013-06-28 19:10:00,87.5,73.8,29.58,SW,225,0.0,-999.0,64,0.00,,,2.44,Wunderground v.1.15,2013-06-28 23:10:00,
2013-06-28 19:15:00,78.4,72.1,29.58,SSE,158,1.0,-999.0,81,0.08,,,2.44,Wunderground v.1.15,2013-06-28 23:15:00,
2013-06-28 19:20:00,78.4,72.1,29.58,SSE,158,1.0,-999.0,81,0.08,,,2.44,Wunderground v.1.15,2013-06-28 23:20:00,
2013-06-28 19:25:00,78.4,72.1,29.58,SSE,158,1.0,-999.0,81,0.08,,,2.44,Wunderground v.1.15,2013-06-28 23:25:00,
2013-06-28 19:30:00,78.4,72.1,29.58,SSE,158,1.0,-999.0,81,0.08,,,2.44,Wunderground v.1.15,2013-06-28 23:30:00,
2013-06-28 19:35:00,78.4,72.1,29.58,SSE,158,1.0,-999.0,81,0.08,,,2.44,Wunderground v.1.15,2013-06-28 23:35:00,
2013-06-28 19:40:00,78.4,72.1,29.58,SSE,158,1.0,-999.0,81,0.08,,,2.44,Wunderground v.1.15,2013-06-28 23:40:00,
2013-06-28 19:45:00,73.4,70.0,29.63,West,270,2.0,-999.0,89,0.32,,,2.44,Wunderground v.1.15,2013-06-28 23:45:00,
2013-06-28 19:50:00,73.4,70.0,29.63,West,270,2.0,-999.0,89,0.32,,,2.44,Wunderground v.1.15,2013-06-28 23:50:00,
2013-06-28 19:55:00,73.4,70.0,29.63,West,270,2.0,-999.0,89,0.32,,,2.44,Wunderground v.1.15,2013-06-28 23:55:00,
2013-06-28 20:00:00,73.4,70.0,29.63,West,270,2.0,-999.0,89,0.32,,,2.44,Wunderground v.1.15,2013-06-29 00:00:00,
2013-06-28 20:05:00,73.4,70.0,29.63,West,270,2.0,-999.0,89,0.32,,,2.44,Wunderground v.1.15,2013-06-29 00:05:00,
2013-06-28 20:10:00,73.4,70.0,29.63,West,270,2.0,-999.0,89,0.32,,,2.44,Wunderground v.1.15,2013-06-29 00:10:00,
2013-06-28 20:15:00,71.5,68.7,29.59,NNE,23,2.0,-999.0,91,0.53,,,2.44,Wunderground v.1.15,2013-06-29 00:15:00,
2013-06-28 20:20:00,71.5,68.7,29.59,NNE,23,2.0,-999.0,91,0.53,,,2.44,Wunderground v.1.15,2013-06-29 00:20:00,
2013-06-28 20:25:00,71.5,68.7,29.59,NNE,23,2.0,-999.0,91,0.53,,,2.44,Wunderground v.1.15,2013-06-29 00:25:00,
2013-06-28 20:30:00,71.5,68.7,29.59,NNE,23,2.0,-999.0,91,0.53,,,2.44,Wunderground v.1.15,2013-06-29 00:30:00,
2013-06-28 20:35:00,71.5,68.7,29.59,NNE,23,2.0,-999.0,91,0.53,,,2.44,Wunderground v.1.15,2013-06-29 00:35:00,
2013-06-28 20:40:00,71.5,68.7,29.59,NNE,23,2.0,-999.0,91,0.53,,,2.44,Wunderground v.1.15,2013-06-29 00:40:00,
2013-06-28 20:45:00,72.1,70.0,29.63,WSW,248,2.0,-999.0,93,0.49,,,2.44,Wunderground v.1.15,2013-06-29 00:45:00,
2013-06-28 20:50:00,72.1,70.0,29.63,WSW,248,2.0,-999.0,93,0.49,,,2.44,Wunderground v.1.15,2013-06-29 00:50:00,
2013-06-28 20:55:00,72.1,70.0,29.63,WSW,248,2.0,-999.0,93,0.49,,,2.44,Wunderground v.1.15,2013-06-29 00:55:00,
2013-06-28 21:00:00,72.1,70.0,29.63,WSW,248,2.0,-999.0,93,0.49,,,2.44,Wunderground v.1.15,2013-06-29 01:00:00,
2013-06-28 21:05:00,72.1,70.0,29.63,WSW,248,2.0,-999.0,93,0.49,,,2.44,Wunderground v.1.15,2013-06-29 01:05:00,
2013-06-28 21:10:00,72.1,70.0,29.63,WSW,248,2.0,-999.0,93,0.49,,,2.44,Wunderground v.1.15,2013-06-29 01:10:00,
2013-06-28 21:15:00,71.7,70.2,29.66,NNE,23,2.0,-999.0,95,0.93,,,2.44,Wunderground v.1.15,2013-06-29 01:15:00,
2013-06-28 21:20:00,71.7,70.2,29.66,NNE,23,2.0,-999.0,95,0.93,,,2.44,Wunderground v.1.15,2013-06-29 01:20:00,
2013-06-28 21:25:00,71.7,70.2,29.66,NNE,23,2.0,-999.0,95,0.93,,,2.44,Wunderground v.1.15,2013-06-29 01:25:00,
2013-06-28 21:30:00,71.7,70.2,29.66,NNE,23,2.0,-999.0,95,0.93,,,2.44,Wunderground v.1.15,2013-06-29 01:30:00,
2013-06-28 21:35:00,71.7,70.2,29.66,NNE,23,2.0,-999.0,95,0.93,,,2.44,Wunderground v.1.15,2013-06-29 01:35:00,
2013-06-28 21:40:00,71.7,70.2,29.66,NNE,23,2.0,-999.0,95,0.93,,,2.44,Wunderground v.1.15,2013-06-29 01:40:00,
2013-06-28 21:45:00,71.0,69.2,29.63,WSW,248,1.0,-999.0,94,1.39,,,2.44,Wunderground v.1.15,2013-06-29 01:45:00,
2013-06-28 21:50:00,71.0,69.2,29.63,WSW,248,1.0,-999.0,94,1.39,,,2.44,Wunderground v.1.15,2013-06-29 01:50:00,
2013-06-28 21:55:00,71.0,69.2,29.63,WSW,248,1.0,-999.0,94,1.39,,,2.44,Wunderground v.1.15,2013-06-29 01:55:00,
2013-06-28 22:00:00,71.0,69.2,29.63,WSW,248,1.0,-999.0,94,1.39,,,2.44,Wunderground v.1.15,2013-06-29 02:00:00,
2013-06-28 22:05:00,71.0,69.2,29.63,WSW,248,1.0,-999.0,94,1.39,,,2.44,Wunderground v.1.15,2013-06-29 02:05:00,
2013-06-28 22:10:00,71.0,69.2,29.63,WSW,248,1.0,-999.0,94,1.39,,,2.44,Wunderground v.1.15,2013-06-29 02:10:00,
2013-06-28 22:15:00,71.5,70.0,29.64,SE,135,0.0,-999.0,95,0.89,,,2.44,Wunderground v.1.15,2013-06-29 02:15:00,
2013-06-28 22:20:00,71.5,70.0,29.64,SE,135,0.0,-999.0,95,0.89,,,2.44,Wunderground v.1.15,2013-06-29 02:20:00,
2013-06-28 22:25:00,71.5,70.0,29.64,SE,135,0.0,-999.0,95,0.89,,,2.44,Wunderground v.1.15,2013-06-29 02:25:00,
2013-06-28 22:30:00,71.5,70.0,29.64,SE,135,0.0,-999.0,95,0.89,,,2.44,Wunderground v.1.15,2013-06-29 02:30:00,
2013-06-28 22:35:00,71.5,70.0,29.64,SE,135,0.0,-999.0,95,0.89,,,2.44,Wunderground v.1.15,2013-06-29 02:35:00,
2013-06-28 22:40:00,71.5,70.0,29.64,SE,135,0.0,-999.0,95,0.89,,,2.44,Wunderground v.1.15,2013-06-29 02:40:00,
2013-06-28 22:45:00,72.4,70.9,29.64,N/A,-737280,0.0,-999.0,95,0.24,,,2.44,Wunderground v.1.15,2013-06-29 02:45:00,
2013-06-28 22:50:00,72.4,70.9,29.64,N/A,-737280,0.0,-999.0,95,0.24,,,2.44,Wunderground v.1.15,2013-06-29 02:50:00,
2013-06-28 22:55:00,72.4,70.9,29.64,N/A,-737280,0.0,-999.0,95,0.24,,,2.44,Wunderground v.1.15,2013-06-29 02:55:00,
2013-06-28 23:00:00,72.4,70.9,29.64,N/A,-737280,0.0,-999.0,95,0.24,,,2.44,Wunderground v.1.15,2013-06-29 03:00:00,
2013-06-28 23:05:00,72.4,70.9,29.64,N/A,-737280,0.0,-999.0,95,0.24,,,2.44,Wunderground v.1.15,2013-06-29 03:05:00,
2013-06-28 23:10:00,72.4,70.9,29.64,N/A,-737280,0.0,-999.0,95,0.24,,,2.44,Wunderground v.1.15,2013-06-29 03:10:00,
2013-06-28 23:15:00,72.4,70.9,29.63,ENE,68,0.0,-999.0,95,0.01,,,2.44,Wunderground v.1.15,2013-06-29 03:15:00,
2013-06-28 23:20:00,72.4,70.9,29.63,ENE,68,0.0,-999.0,95,0.01,,,2.44,Wunderground v.1.15,2013-06-29 03:20:00,
2013-06-28 23:25:00,72.4,70.9,29.63,ENE,68,0.0,-999.0,95,0.01,,,2.44,Wunderground v.1.15,2013-06-29 03:25:00,
2013-06-28 23:30:00,72.4,70.9,29.63,ENE,68,0.0,-999.0,95,0.01,,,2.44,Wunderground v.1.15,2013-06-29 03:30:00,
2013-06-28 23:35:00,72.4,70.9,29.63,ENE,68,0.0,-999.0,95,0.01,,,2.44,Wunderground v.1.15,2013-06-29 03:35:00,
2013-06-28 23:40:00,72.4,70.9,29.63,ENE,68,0.0,-999.0,95,0.01,,,2.44,Wunderground v.1.15,2013-06-29 03:40:00,
2013-06-28 23:45:00,71.9,70.4,29.63,N/A,-737280,0.0,-999.0,95,0.00,,,2.44,Wunderground v.1.15,2013-06-29 03:45:00,
2013-06-28 23:50:00,71.9,70.4,29.63,N/A,-737280,0.0,-999.0,95,0.00,,,2.44,Wunderground v.1.15,2013-06-29 03:50:00,
2013-06-28 23:55:00,71.9,70.4,29.63,N/A,-737280,0.0,-999.0,95,0.00,,,2.44,Wunderground v.1.15,2013-06-29 03:55:00,